Ana Sayfa
METAR-TAF:

METAR-TAF

Havaalanları :

Waterbury-Oxford Airport

Oxford, Connecticut, Amerika Birleşik Devletleri

Enlem: 41-29N, Boylam: 073-08W, yükseklik: 222 m

Güncel hava durumu gözlemi

Rapor saat 15:51 UTC de 1 saat ve 4 dakika önce yapıldı.
Rüzgar kuzey/kuzeybatıdan 13 kt ve 28 kt'a kadar ani rüzgarlar
Sıcaklık 8°C
Nem 57%
Basınç 1003 hPa
Görüş mesafesi: 16.1 km
3600 ft yükseklikte az bulutlu
7000 ft yükseklikte parçalı bulutlu

METAR: KOXC 021551Z 34013G28KT 10SM FEW036 SCT070 08/00 A2963 RMK AO2 PK WND 34029/1539 SLP046 T00830000

Saat: 12:55 (16:55 UTC)


TAF: eksik

4.000'den fazla havaalanı için hava durumu gözlemleri ve tahminleri (METAR ve TAF raporları).

Kullanılabilir istasyonlar harita üzerinde sarı ve kırmızı noktalarla gösterilir.

İstasyonun adını görmek için fareyi noktanın üzerinde gezdirin.

Sonrasında hava gözlem ve tahminlerini görmek için tıklayın.

Haritayı değiştirmek için: yaklaştırmak için siyah artı işaretli yeşil düğmeye ve uzaklaştırmak için de eksi işaretli düğmeye hızla tıklayın; bitişik haritalar için yeşil okları kullanın.


METAR-TAF: